Ocean Liberty — WDE2762 — position and weather

sailwx.info

Track history (hours):
 
Tides and Currents Weather Stations Pressure Air Temp Water Temp Dewpoint Dewpoint Depression Visibility Wind Speed Wind Dir Waves Ship Positions

Ocean Liberty

Owner: Marine Spill Response Corporation, Long Beach, CA. More information available from US FCC via Universal Licensing System and Coast Guard Vessel Documentation Center.

Last reported at 2014-Oct-22 21:33 UTC. Time now 2014-Oct-22 21:44 UTC.
Position N 33°46' W 118°13'.

; draft 9 m.

Type: Pollution control. MMSI: 367329330.

Date/timePositionNaut miles runAvg speedWind from/ knotsBaromVisibWave heightAir tempDewpointWater temp
2014-Oct-22 21:33N 33°46' W 118°13'0 0.0
2014-Oct-22 20:32N 33°46' W 118°13'0 0.0
2014-Oct-22 19:32N 33°46' W 118°13'0 0.0
2014-Oct-22 18:32N 33°46' W 118°13'0 0.0
2014-Oct-22 17:32N 33°46' W 118°13'0 0.0
2014-Oct-22 16:32N 33°46' W 118°13'0 0.0
2014-Oct-22 15:32N 33°46' W 118°13'0 0.0
2014-Oct-22 14:29N 33°46' W 118°13'0 0.0
2014-Oct-22 13:32N 33°46' W 118°13'0 0.0
2014-Oct-22 12:32N 33°46' W 118°13'0 0.0
2014-Oct-22 11:32N 33°46' W 118°13'0 0.0
2014-Oct-22 10:32N 33°46' W 118°13'0 0.0
2014-Oct-22 09:32N 33°46' W 118°13'0 0.0
2014-Oct-22 08:32N 33°46' W 118°13'0 0.0
2014-Oct-22 07:32N 33°46' W 118°13'0 0.0
2014-Oct-22 06:32N 33°46' W 118°13'0 0.0
2014-Oct-22 05:32N 33°46' W 118°13'0 0.0
2014-Oct-22 04:32N 33°46' W 118°13'0 0.0
2014-Oct-22 03:32N 33°46' W 118°13'0 0.0
2014-Oct-22 02:32N 33°46' W 118°13'0 0.0
2014-Oct-22 01:32N 33°46' W 118°13'0 0.0
2014-Oct-22 00:32N 33°46' W 118°13'0 0.0
2014-Oct-21 23:32N 33°46' W 118°13'0 0.0
2014-Oct-21 22:32N 33°46' W 118°13'0 0.0
2014-Oct-21 21:32N 33°46' W 118°13'0 0.0
2014-Oct-21 20:32N 33°46' W 118°13'0 0.0
2014-Oct-21 19:32N 33°46' W 118°13'0 0.0
2014-Oct-21 18:32N 33°46' W 118°13'0 0.0
2014-Oct-21 17:32N 33°46' W 118°13'0 0.0
2014-Oct-21 16:32N 33°46' W 118°13'0 0.0
2014-Oct-21 15:32N 33°46' W 118°13'0 0.0
2014-Oct-21 14:32N 33°46' W 118°13'0 0.0
2014-Oct-21 13:32N 33°46' W 118°13'0 0.0
2014-Oct-21 12:32N 33°46' W 118°13'0 0.0
2014-Oct-21 11:32N 33°46' W 118°13'0 0.0
2014-Oct-21 10:32N 33°46' W 118°13'0 0.0
2014-Oct-21 09:32N 33°46' W 118°13'0 0.0
2014-Oct-21 08:32N 33°46' W 118°13'0 0.0
2014-Oct-21 07:32N 33°46' W 118°13'0 0.0
2014-Oct-21 06:31N 33°46' W 118°13'0 0.0
2014-Oct-21 05:31N 33°46' W 118°13'0 0.0
2014-Oct-21 04:31N 33°46' W 118°13'0 0.0
2014-Oct-21 03:31N 33°46' W 118°13'0 0.0
2014-Oct-21 02:31N 33°46' W 118°13'0 0.0
2014-Oct-21 01:31N 33°46' W 118°13'0 0.0
2014-Oct-21 00:31N 33°46' W 118°13'0 0.0
2014-Oct-20 23:31N 33°46' W 118°13'0 0.0
2014-Oct-20 22:31N 33°46' W 118°13'0 0.0
2014-Oct-20 21:31N 33°46' W 118°13'0 0.0
2014-Oct-20 20:31N 33°46' W 118°13'0 0.0
2014-Oct-20 19:31N 33°46' W 118°13'0 0.0
2014-Oct-20 18:31N 33°46' W 118°13'3 2.6
2014-Oct-20 17:33N 33°44' W 118°13'2 2.1
2014-Oct-20 16:24N 33°44' W 118°16'0 0.0
2014-Oct-20 15:04N 33°44' W 118°16'2 3.0
2014-Oct-20 14:29N 33°43' W 118°15'4 4.2
2014-Oct-20 13:34N 33°46' W 118°13'0 0.0
2014-Oct-20 12:33N 33°46' W 118°13'0 0.0
2014-Oct-20 11:33N 33°46' W 118°13'0 0.0
2014-Oct-20 10:34N 33°46' W 118°13'0 0.0
2014-Oct-20 09:33N 33°46' W 118°13'0 0.0
2014-Oct-20 08:33N 33°46' W 118°13'0 0.0
2014-Oct-20 07:34N 33°46' W 118°13'0 0.0
2014-Oct-20 06:34N 33°46' W 118°13'0 0.0
2014-Oct-20 05:34N 33°46' W 118°13'0 0.0
2014-Oct-20 04:34N 33°46' W 118°13'0 0.0
2014-Oct-20 03:34N 33°46' W 118°13'0 0.0
2014-Oct-20 02:34N 33°46' W 118°13'0 0.0
2014-Oct-20 01:34N 33°46' W 118°13'0 0.0
2014-Oct-20 00:33N 33°46' W 118°13'0 0.0
2014-Oct-19 23:33N 33°46' W 118°13'0 0.0
2014-Oct-19 22:33N 33°46' W 118°13'0 0.0
2014-Oct-19 21:33N 33°46' W 118°13'0 0.0
2014-Oct-19 20:33N 33°46' W 118°13'0 0.0
2014-Oct-19 19:33N 33°46' W 118°13'0 0.0
2014-Oct-19 18:34N 33°46' W 118°13'0 0.0
2014-Oct-19 17:33N 33°46' W 118°13'0 0.0
2014-Oct-19 16:34N 33°46' W 118°13'0 0.0
2014-Oct-19 15:34N 33°46' W 118°13'0 0.0
2014-Oct-19 14:33N 33°46' W 118°13'0 0.0
2014-Oct-19 13:34N 33°46' W 118°13'0 0.0
2014-Oct-19 12:34N 33°46' W 118°13'0 0.0
2014-Oct-19 11:34N 33°46' W 118°13'0 0.0
2014-Oct-19 10:34N 33°46' W 118°13'0 0.0
2014-Oct-19 09:33N 33°46' W 118°13'0 0.0
2014-Oct-19 08:33N 33°46' W 118°13'0 0.0
2014-Oct-19 07:33N 33°46' W 118°13'0 0.0
2014-Oct-19 06:33N 33°46' W 118°13'0 0.0
2014-Oct-19 05:33N 33°46' W 118°13'0 0.0
2014-Oct-19 04:33N 33°46' W 118°13'0 0.0
2014-Oct-19 03:34N 33°46' W 118°13'0 0.0
2014-Oct-19 02:33N 33°46' W 118°13'0 0.0
2014-Oct-19 01:34N 33°46' W 118°13'0 0.0
2014-Oct-19 00:33N 33°46' W 118°13'0 0.0
2014-Oct-18 23:34N 33°46' W 118°13'0 0.0
2014-Oct-18 22:34N 33°46' W 118°13'0 0.0
2014-Oct-18 21:33N 33°46' W 118°13'0 0.0
2014-Oct-18 20:33N 33°46' W 118°13'0 0.0
2014-Oct-18 19:34N 33°46' W 118°13'0 0.0
2014-Oct-18 18:33N 33°46' W 118°13'0 0.0
2014-Oct-18 17:33N 33°46' W 118°13'0 0.0
2014-Oct-18 16:33N 33°46' W 118°13'0 0.0
2014-Oct-18 15:33N 33°46' W 118°13'0 0.0
2014-Oct-18 14:33N 33°46' W 118°13'0 0.0
2014-Oct-18 13:33N 33°46' W 118°13'0 0.0
2014-Oct-18 12:32N 33°46' W 118°13'0 0.0
2014-Oct-18 11:33N 33°46' W 118°13'0 0.0
2014-Oct-18 10:32N 33°46' W 118°13'0 0.0
2014-Oct-18 09:33N 33°46' W 118°13'0 0.0
2014-Oct-18 08:33N 33°46' W 118°13'0 0.0
2014-Oct-18 07:34N 33°46' W 118°13'0 0.0
2014-Oct-18 06:33N 33°46' W 118°13'0 0.0
2014-Oct-18 05:33N 33°46' W 118°13'0 0.0
2014-Oct-18 04:34N 33°46' W 118°13'0 0.0
2014-Oct-18 03:33N 33°46' W 118°13'0 0.0
2014-Oct-18 02:33N 33°46' W 118°13'0 0.0
2014-Oct-18 01:33N 33°46' W 118°13'0 0.0
2014-Oct-18 00:33N 33°46' W 118°13'0 0.0
2014-Oct-17 23:34N 33°46' W 118°13'0 0.0
2014-Oct-17 22:34N 33°46' W 118°13'0 0.0
2014-Oct-17 21:34N 33°46' W 118°13'0 0.0
2014-Oct-17 20:33N 33°46' W 118°13'0 0.0
2014-Oct-17 19:33N 33°46' W 118°13'0 0.0
2014-Oct-17 18:33N 33°46' W 118°13'0 0.0
2014-Oct-17 17:33N 33°46' W 118°13'0 0.0
2014-Oct-17 16:33N 33°46' W 118°13'0 0.0
2014-Oct-17 15:33N 33°46' W 118°13'0 0.0
2014-Oct-17 14:33N 33°46' W 118°13'0 0.0
2014-Oct-17 13:33N 33°46' W 118°13'0 0.0
2014-Oct-17 12:33N 33°46' W 118°13'0 0.0
2014-Oct-17 11:34N 33°46' W 118°13'0 0.0
2014-Oct-17 10:33N 33°46' W 118°13'0 0.0
2014-Oct-17 09:33N 33°46' W 118°13'0 0.0
2014-Oct-17 08:34N 33°46' W 118°13'0 0.0
2014-Oct-17 07:33N 33°46' W 118°13'0 0.0
2014-Oct-17 06:33N 33°46' W 118°13'0 0.0
2014-Oct-17 05:34N 33°46' W 118°13'0 0.0
2014-Oct-17 04:33N 33°46' W 118°13'0 0.0
2014-Oct-17 03:33N 33°46' W 118°13'0 0.0
2014-Oct-17 02:33N 33°46' W 118°13'0 0.0
2014-Oct-17 01:33N 33°46' W 118°13'0 0.0
2014-Oct-17 00:33N 33°46' W 118°13'0 0.0
2014-Oct-16 23:33N 33°46' W 118°13'0 0.0
2014-Oct-16 22:33N 33°46' W 118°13'4 3.6
2014-Oct-16 21:33N 33°43' W 118°11'9 7.3
2014-Oct-16 20:19N 33°40' W 118°21'11 9.0
2014-Oct-16 19:05N 33°49' W 118°28'5 9.6
2014-Oct-16 18:33N 33°54' W 118°29'0 0.2
2014-Oct-16 17:33N 33°54' W 118°29'1 0.6
2014-Oct-16 16:33N 33°54' W 118°28'1 0.8
2014-Oct-16 15:33N 33°53' W 118°27'2 1.7
2014-Oct-16 14:33N 33°52' W 118°27'16 5.2
2014-Oct-16 11:33N 33°44' W 118°11'3 3.0
2014-Oct-16 10:33N 33°46' W 118°13'0 0.0
2014-Oct-16 09:33N 33°46' W 118°13'0 0.0
2014-Oct-16 08:33N 33°46' W 118°13'0 0.0
2014-Oct-16 07:33N 33°46' W 118°13'0 0.0
2014-Oct-16 06:33N 33°46' W 118°13'0 0.0
2014-Oct-16 05:33N 33°46' W 118°13'0 0.0
2014-Oct-16 04:33N 33°46' W 118°13'0 0.0
2014-Oct-16 03:33N 33°46' W 118°13'0 0.0
2014-Oct-16 02:33N 33°46' W 118°13'0 0.0
2014-Oct-16 01:33N 33°46' W 118°13'0 0.0
2014-Oct-16 00:33N 33°46' W 118°13'0 0.0
2014-Oct-15 23:33N 33°46' W 118°13'0 0.0
2014-Oct-15 22:33N 33°46' W 118°13'0 0.0
2014-Oct-15 21:33N 33°46' W 118°13'2 1.8
2014-Oct-15 20:33N 33°45' W 118°13'5 4.8
2014-Oct-15 19:29N 33°43' W 118°07'0 0.1
2014-Oct-15 18:20N 33°43' W 118°07'0 0.6
2014-Oct-15 17:33N 33°43' W 118°07'2 0.6
2014-Oct-15 13:28N 33°43' W 118°10'4 4.8
2014-Oct-15 12:33N 33°46' W 118°13'0 0.0
2014-Oct-15 11:33N 33°46' W 118°13'0 0.0
2014-Oct-15 10:33N 33°46' W 118°13'0 0.0
2014-Oct-15 09:33N 33°46' W 118°13'0 0.0
2014-Oct-15 08:33N 33°46' W 118°13'0 0.0
2014-Oct-15 07:33N 33°46' W 118°13'0 0.0
2014-Oct-15 06:33N 33°46' W 118°13'0 0.0
2014-Oct-15 05:33N 33°46' W 118°13'0 0.0
2014-Oct-15 04:33N 33°46' W 118°13'0 0.0
2014-Oct-15 03:33N 33°46' W 118°13'0 0.0
2014-Oct-15 02:33N 33°46' W 118°13'0 0.0
2014-Oct-15 01:33N 33°46' W 118°13'0 0.0
2014-Oct-15 00:33N 33°46' W 118°13'0 0.0
2014-Oct-14 23:33N 33°46' W 118°13'0 0.0
2014-Oct-14 22:33N 33°46' W 118°13'0 0.0
2014-Oct-14 21:33N 33°46' W 118°13'0 0.0
2014-Oct-14 20:33N 33°46' W 118°13'0 0.0
2014-Oct-14 19:33N 33°46' W 118°13'0 0.0
2014-Oct-14 18:33N 33°46' W 118°13'0 0.0
2014-Oct-14 17:33N 33°46' W 118°13'0 0.0
2014-Oct-14 16:33N 33°46' W 118°13'0 0.0
2014-Oct-14 15:33N 33°46' W 118°13'0 0.0
2014-Oct-14 14:33N 33°46' W 118°13'0 0.0
2014-Oct-14 13:32N 33°46' W 118°13'0 0.0
2014-Oct-14 12:32N 33°46' W 118°13'0 0.0
2014-Oct-14 11:32N 33°46' W 118°13'0 0.0
2014-Oct-14 10:32N 33°46' W 118°13'0 0.0
2014-Oct-14 09:32N 33°46' W 118°13'0 0.0
2014-Oct-14 08:32N 33°46' W 118°13'0 0.0
2014-Oct-14 07:32N 33°46' W 118°13'0 0.0
2014-Oct-14 06:32N 33°46' W 118°13'0 0.0
2014-Oct-14 05:32N 33°46' W 118°13'0 0.0
2014-Oct-14 04:32N 33°46' W 118°13'0 0.0
2014-Oct-14 03:32N 33°46' W 118°13'0 0.0
2014-Oct-14 02:32N 33°46' W 118°13'0 0.0
2014-Oct-14 01:32N 33°46' W 118°13'0 0.0
2014-Oct-14 00:32N 33°46' W 118°13'0 0.0
2014-Oct-13 23:29N 33°46' W 118°13'0 0.0
2014-Oct-13 22:32N 33°46' W 118°13'0 0.0
2014-Oct-13 21:32N 33°46' W 118°13'0 0.0
2014-Oct-13 20:32N 33°46' W 118°13'0 0.0
2014-Oct-13 19:32N 33°46' W 118°13'0 0.0
2014-Oct-13 18:32N 33°46' W 118°13'0 0.0
2014-Oct-13 17:32N 33°46' W 118°13'0 0.0
2014-Oct-13 16:32N 33°46' W 118°13'0 0.0
2014-Oct-13 15:32N 33°46' W 118°13'0 0.0
2014-Oct-13 14:32N 33°46' W 118°13'0 0.0
2014-Oct-13 13:32N 33°46' W 118°13'0 0.0
2014-Oct-13 12:32N 33°46' W 118°13'0 0.0
2014-Oct-13 11:32N 33°46' W 118°13'0 0.0
2014-Oct-13 10:32N 33°46' W 118°13'0 0.0
2014-Oct-13 09:32N 33°46' W 118°13'0 0.0
2014-Oct-13 08:32N 33°46' W 118°13'0 0.0
2014-Oct-13 07:32N 33°46' W 118°13'0 0.0
2014-Oct-13 06:32N 33°46' W 118°13'0 0.0
2014-Oct-13 05:32N 33°46' W 118°13'0 0.0
2014-Oct-13 04:32N 33°46' W 118°13'0 0.0
2014-Oct-13 03:32N 33°46' W 118°13'0 0.0
2014-Oct-13 02:32N 33°46' W 118°13'0 0.0
2014-Oct-13 01:32N 33°46' W 118°13'0 0.0
2014-Oct-13 00:31N 33°46' W 118°13'0 0.0
2014-Oct-12 23:31N 33°46' W 118°13'0 0.0
2014-Oct-12 22:31N 33°46' W 118°13'  
Track history (hours):
 
Tides and Currents Weather Stations Pressure Air Temp Water Temp Dewpoint Dewpoint Depression Visibility Wind Speed Wind Dir Waves Ship Positions

Ocean Liberty

Owner: Marine Spill Response Corporation, Long Beach, CA. More information available from US FCC via Universal Licensing System and Coast Guard Vessel Documentation Center.

Last reported at 2014-Oct-22 21:33 UTC. Time now 2014-Oct-22 21:44 UTC.
Position N 33°46' W 118°13'.

; draft 9 m.

Type: Pollution control. MMSI: 367329330.

Date/timePositionNaut miles runAvg speedWind from/ knotsBaromVisibWave heightAir tempDewpointWater temp
2014-Oct-22 21:33N 33°46' W 118°13'0 0.0
2014-Oct-22 20:32N 33°46' W 118°13'0 0.0
2014-Oct-22 19:32N 33°46' W 118°13'0 0.0
2014-Oct-22 18:32N 33°46' W 118°13'0 0.0
2014-Oct-22 17:32N 33°46' W 118°13'0 0.0
2014-Oct-22 16:32N 33°46' W 118°13'0 0.0
2014-Oct-22 15:32N 33°46' W 118°13'0 0.0
2014-Oct-22 14:29N 33°46' W 118°13'0 0.0
2014-Oct-22 13:32N 33°46' W 118°13'0 0.0
2014-Oct-22 12:32N 33°46' W 118°13'0 0.0
2014-Oct-22 11:32N 33°46' W 118°13'0 0.0
2014-Oct-22 10:32N 33°46' W 118°13'0 0.0
2014-Oct-22 09:32N 33°46' W 118°13'0 0.0
2014-Oct-22 08:32N 33°46' W 118°13'0 0.0
2014-Oct-22 07:32N 33°46' W 118°13'0 0.0
2014-Oct-22 06:32N 33°46' W 118°13'0 0.0
2014-Oct-22 05:32N 33°46' W 118°13'0 0.0
2014-Oct-22 04:32N 33°46' W 118°13'0 0.0
2014-Oct-22 03:32N 33°46' W 118°13'0 0.0
2014-Oct-22 02:32N 33°46' W 118°13'0 0.0
2014-Oct-22 01:32N 33°46' W 118°13'0 0.0
2014-Oct-22 00:32N 33°46' W 118°13'0 0.0
2014-Oct-21 23:32N 33°46' W 118°13'0 0.0
2014-Oct-21 22:32N 33°46' W 118°13'0 0.0
2014-Oct-21 21:32N 33°46' W 118°13'0 0.0
2014-Oct-21 20:32N 33°46' W 118°13'0 0.0
2014-Oct-21 19:32N 33°46' W 118°13'0 0.0
2014-Oct-21 18:32N 33°46' W 118°13'0 0.0
2014-Oct-21 17:32N 33°46' W 118°13'0 0.0
2014-Oct-21 16:32N 33°46' W 118°13'0 0.0
2014-Oct-21 15:32N 33°46' W 118°13'0 0.0
2014-Oct-21 14:32N 33°46' W 118°13'0 0.0
2014-Oct-21 13:32N 33°46' W 118°13'0 0.0
2014-Oct-21 12:32N 33°46' W 118°13'0 0.0
2014-Oct-21 11:32N 33°46' W 118°13'0 0.0
2014-Oct-21 10:32N 33°46' W 118°13'0 0.0
2014-Oct-21 09:32N 33°46' W 118°13'0 0.0
2014-Oct-21 08:32N 33°46' W 118°13'0 0.0
2014-Oct-21 07:32N 33°46' W 118°13'0 0.0
2014-Oct-21 06:31N 33°46' W 118°13'0 0.0
2014-Oct-21 05:31N 33°46' W 118°13'0 0.0
2014-Oct-21 04:31N 33°46' W 118°13'0 0.0
2014-Oct-21 03:31N 33°46' W 118°13'0 0.0
2014-Oct-21 02:31N 33°46' W 118°13'0 0.0
2014-Oct-21 01:31N 33°46' W 118°13'0 0.0
2014-Oct-21 00:31N 33°46' W 118°13'0 0.0
2014-Oct-20 23:31N 33°46' W 118°13'0 0.0
2014-Oct-20 22:31N 33°46' W 118°13'0 0.0
2014-Oct-20 21:31N 33°46' W 118°13'0 0.0
2014-Oct-20 20:31N 33°46' W 118°13'0 0.0
2014-Oct-20 19:31N 33°46' W 118°13'0 0.0
2014-Oct-20 18:31N 33°46' W 118°13'3 2.6
2014-Oct-20 17:33N 33°44' W 118°13'2 2.1
2014-Oct-20 16:24N 33°44' W 118°16'0 0.0
2014-Oct-20 15:04N 33°44' W 118°16'2 3.0
2014-Oct-20 14:29N 33°43' W 118°15'4 4.2
2014-Oct-20 13:34N 33°46' W 118°13'0 0.0
2014-Oct-20 12:33N 33°46' W 118°13'0 0.0
2014-Oct-20 11:33N 33°46' W 118°13'0 0.0
2014-Oct-20 10:34N 33°46' W 118°13'0 0.0
2014-Oct-20 09:33N 33°46' W 118°13'0 0.0
2014-Oct-20 08:33N 33°46' W 118°13'0 0.0
2014-Oct-20 07:34N 33°46' W 118°13'0 0.0
2014-Oct-20 06:34N 33°46' W 118°13'0 0.0
2014-Oct-20 05:34N 33°46' W 118°13'0 0.0
2014-Oct-20 04:34N 33°46' W 118°13'0 0.0
2014-Oct-20 03:34N 33°46' W 118°13'0 0.0
2014-Oct-20 02:34N 33°46' W 118°13'0 0.0
2014-Oct-20 01:34N 33°46' W 118°13'0 0.0
2014-Oct-20 00:33N 33°46' W 118°13'0 0.0
2014-Oct-19 23:33N 33°46' W 118°13'0 0.0
2014-Oct-19 22:33N 33°46' W 118°13'0 0.0
2014-Oct-19 21:33N 33°46' W 118°13'0 0.0
2014-Oct-19 20:33N 33°46' W 118°13'0 0.0
2014-Oct-19 19:33N 33°46' W 118°13'0 0.0
2014-Oct-19 18:34N 33°46' W 118°13'0 0.0
2014-Oct-19 17:33N 33°46' W 118°13'0 0.0
2014-Oct-19 16:34N 33°46' W 118°13'0 0.0
2014-Oct-19 15:34N 33°46' W 118°13'0 0.0
2014-Oct-19 14:33N 33°46' W 118°13'0 0.0
2014-Oct-19 13:34N 33°46' W 118°13'0 0.0
2014-Oct-19 12:34N 33°46' W 118°13'0 0.0
2014-Oct-19 11:34N 33°46' W 118°13'0 0.0
2014-Oct-19 10:34N 33°46' W 118°13'0 0.0
2014-Oct-19 09:33N 33°46' W 118°13'0 0.0
2014-Oct-19 08:33N 33°46' W 118°13'0 0.0
2014-Oct-19 07:33N 33°46' W 118°13'0 0.0
2014-Oct-19 06:33N 33°46' W 118°13'0 0.0
2014-Oct-19 05:33N 33°46' W 118°13'0 0.0
2014-Oct-19 04:33N 33°46' W 118°13'0 0.0
2014-Oct-19 03:34N 33°46' W 118°13'0 0.0
2014-Oct-19 02:33N 33°46' W 118°13'0 0.0
2014-Oct-19 01:34N 33°46' W 118°13'0 0.0
2014-Oct-19 00:33N 33°46' W 118°13'0 0.0
2014-Oct-18 23:34N 33°46' W 118°13'0 0.0
2014-Oct-18 22:34N 33°46' W 118°13'0 0.0
2014-Oct-18 21:33N 33°46' W 118°13'0 0.0
2014-Oct-18 20:33N 33°46' W 118°13'0 0.0
2014-Oct-18 19:34N 33°46' W 118°13'0 0.0
2014-Oct-18 18:33N 33°46' W 118°13'0 0.0
2014-Oct-18 17:33N 33°46' W 118°13'0 0.0
2014-Oct-18 16:33N 33°46' W 118°13'0 0.0
2014-Oct-18 15:33N 33°46' W 118°13'0 0.0
2014-Oct-18 14:33N 33°46' W 118°13'0 0.0
2014-Oct-18 13:33N 33°46' W 118°13'0 0.0
2014-Oct-18 12:32N 33°46' W 118°13'0 0.0
2014-Oct-18 11:33N 33°46' W 118°13'0 0.0
2014-Oct-18 10:32N 33°46' W 118°13'0 0.0
2014-Oct-18 09:33N 33°46' W 118°13'0 0.0
2014-Oct-18 08:33N 33°46' W 118°13'0 0.0
2014-Oct-18 07:34N 33°46' W 118°13'0 0.0
2014-Oct-18 06:33N 33°46' W 118°13'0 0.0
2014-Oct-18 05:33N 33°46' W 118°13'0 0.0
2014-Oct-18 04:34N 33°46' W 118°13'0 0.0
2014-Oct-18 03:33N 33°46' W 118°13'0 0.0
2014-Oct-18 02:33N 33°46' W 118°13'0 0.0
2014-Oct-18 01:33N 33°46' W 118°13'0 0.0
2014-Oct-18 00:33N 33°46' W 118°13'0 0.0
2014-Oct-17 23:34N 33°46' W 118°13'0 0.0
2014-Oct-17 22:34N 33°46' W 118°13'0 0.0
2014-Oct-17 21:34N 33°46' W 118°13'0 0.0
2014-Oct-17 20:33N 33°46' W 118°13'0 0.0
2014-Oct-17 19:33N 33°46' W 118°13'0 0.0
2014-Oct-17 18:33N 33°46' W 118°13'0 0.0
2014-Oct-17 17:33N 33°46' W 118°13'0 0.0
2014-Oct-17 16:33N 33°46' W 118°13'0 0.0
2014-Oct-17 15:33N 33°46' W 118°13'0 0.0
2014-Oct-17 14:33N 33°46' W 118°13'0 0.0
2014-Oct-17 13:33N 33°46' W 118°13'0 0.0
2014-Oct-17 12:33N 33°46' W 118°13'0 0.0
2014-Oct-17 11:34N 33°46' W 118°13'0 0.0
2014-Oct-17 10:33N 33°46' W 118°13'0 0.0
2014-Oct-17 09:33N 33°46' W 118°13'0 0.0
2014-Oct-17 08:34N 33°46' W 118°13'0 0.0
2014-Oct-17 07:33N 33°46' W 118°13'0 0.0
2014-Oct-17 06:33N 33°46' W 118°13'0 0.0
2014-Oct-17 05:34N 33°46' W 118°13'0 0.0
2014-Oct-17 04:33N 33°46' W 118°13'0 0.0
2014-Oct-17 03:33N 33°46' W 118°13'0 0.0
2014-Oct-17 02:33N 33°46' W 118°13'0 0.0
2014-Oct-17 01:33N 33°46' W 118°13'0 0.0
2014-Oct-17 00:33N 33°46' W 118°13'0 0.0
2014-Oct-16 23:33N 33°46' W 118°13'0 0.0
2014-Oct-16 22:33N 33°46' W 118°13'4 3.6
2014-Oct-16 21:33N 33°43' W 118°11'9 7.3
2014-Oct-16 20:19N 33°40' W 118°21'11 9.0
2014-Oct-16 19:05N 33°49' W 118°28'5 9.6
2014-Oct-16 18:33N 33°54' W 118°29'0 0.2
2014-Oct-16 17:33N 33°54' W 118°29'1 0.6
2014-Oct-16 16:33N 33°54' W 118°28'1 0.8
2014-Oct-16 15:33N 33°53' W 118°27'2 1.7
2014-Oct-16 14:33N 33°52' W 118°27'16 5.2
2014-Oct-16 11:33N 33°44' W 118°11'3 3.0
2014-Oct-16 10:33N 33°46' W 118°13'0 0.0
2014-Oct-16 09:33N 33°46' W 118°13'0 0.0
2014-Oct-16 08:33N 33°46' W 118°13'0 0.0
2014-Oct-16 07:33N 33°46' W 118°13'0 0.0
2014-Oct-16 06:33N 33°46' W 118°13'0 0.0
2014-Oct-16 05:33N 33°46' W 118°13'0 0.0
2014-Oct-16 04:33N 33°46' W 118°13'0 0.0
2014-Oct-16 03:33N 33°46' W 118°13'0 0.0
2014-Oct-16 02:33N 33°46' W 118°13'0 0.0
2014-Oct-16 01:33N 33°46' W 118°13'0 0.0
2014-Oct-16 00:33N 33°46' W 118°13'0 0.0
2014-Oct-15 23:33N 33°46' W 118°13'0 0.0
2014-Oct-15 22:33N 33°46' W 118°13'0 0.0
2014-Oct-15 21:33N 33°46' W 118°13'2 1.8
2014-Oct-15 20:33N 33°45' W 118°13'5 4.8
2014-Oct-15 19:29N 33°43' W 118°07'0 0.1
2014-Oct-15 18:20N 33°43' W 118°07'0 0.6
2014-Oct-15 17:33N 33°43' W 118°07'2 0.6
2014-Oct-15 13:28N 33°43' W 118°10'4 4.8
2014-Oct-15 12:33N 33°46' W 118°13'0 0.0
2014-Oct-15 11:33N 33°46' W 118°13'0 0.0
2014-Oct-15 10:33N 33°46' W 118°13'0 0.0
2014-Oct-15 09:33N 33°46' W 118°13'0 0.0
2014-Oct-15 08:33N 33°46' W 118°13'0 0.0
2014-Oct-15 07:33N 33°46' W 118°13'0 0.0
2014-Oct-15 06:33N 33°46' W 118°13'0 0.0
2014-Oct-15 05:33N 33°46' W 118°13'0 0.0
2014-Oct-15 04:33N 33°46' W 118°13'0 0.0
2014-Oct-15 03:33N 33°46' W 118°13'0 0.0
2014-Oct-15 02:33N 33°46' W 118°13'0 0.0
2014-Oct-15 01:33N 33°46' W 118°13'0 0.0
2014-Oct-15 00:33N 33°46' W 118°13'0 0.0
2014-Oct-14 23:33N 33°46' W 118°13'0 0.0
2014-Oct-14 22:33N 33°46' W 118°13'0 0.0
2014-Oct-14 21:33N 33°46' W 118°13'0 0.0
2014-Oct-14 20:33N 33°46' W 118°13'0 0.0
2014-Oct-14 19:33N 33°46' W 118°13'0 0.0
2014-Oct-14 18:33N 33°46' W 118°13'0 0.0
2014-Oct-14 17:33N 33°46' W 118°13'0 0.0
2014-Oct-14 16:33N 33°46' W 118°13'0 0.0
2014-Oct-14 15:33N 33°46' W 118°13'0 0.0
2014-Oct-14 14:33N 33°46' W 118°13'0 0.0
2014-Oct-14 13:32N 33°46' W 118°13'0 0.0
2014-Oct-14 12:32N 33°46' W 118°13'0 0.0
2014-Oct-14 11:32N 33°46' W 118°13'0 0.0
2014-Oct-14 10:32N 33°46' W 118°13'0 0.0
2014-Oct-14 09:32N 33°46' W 118°13'0 0.0
2014-Oct-14 08:32N 33°46' W 118°13'0 0.0
2014-Oct-14 07:32N 33°46' W 118°13'0 0.0
2014-Oct-14 06:32N 33°46' W 118°13'0 0.0
2014-Oct-14 05:32N 33°46' W 118°13'0 0.0
2014-Oct-14 04:32N 33°46' W 118°13'0 0.0
2014-Oct-14 03:32N 33°46' W 118°13'0 0.0
2014-Oct-14 02:32N 33°46' W 118°13'0 0.0
2014-Oct-14 01:32N 33°46' W 118°13'0 0.0
2014-Oct-14 00:32N 33°46' W 118°13'0 0.0
2014-Oct-13 23:29N 33°46' W 118°13'0 0.0
2014-Oct-13 22:32N 33°46' W 118°13'0 0.0
2014-Oct-13 21:32N 33°46' W 118°13'0 0.0
2014-Oct-13 20:32N 33°46' W 118°13'0 0.0
2014-Oct-13 19:32N 33°46' W 118°13'0 0.0
2014-Oct-13 18:32N 33°46' W 118°13'0 0.0
2014-Oct-13 17:32N 33°46' W 118°13'0 0.0
2014-Oct-13 16:32N 33°46' W 118°13'0 0.0
2014-Oct-13 15:32N 33°46' W 118°13'0 0.0
2014-Oct-13 14:32N 33°46' W 118°13'0 0.0
2014-Oct-13 13:32N 33°46' W 118°13'0 0.0
2014-Oct-13 12:32N 33°46' W 118°13'0 0.0
2014-Oct-13 11:32N 33°46' W 118°13'0 0.0
2014-Oct-13 10:32N 33°46' W 118°13'0 0.0
2014-Oct-13 09:32N 33°46' W 118°13'0 0.0
2014-Oct-13 08:32N 33°46' W 118°13'0 0.0
2014-Oct-13 07:32N 33°46' W 118°13'0 0.0
2014-Oct-13 06:32N 33°46' W 118°13'0 0.0
2014-Oct-13 05:32N 33°46' W 118°13'0 0.0
2014-Oct-13 04:32N 33°46' W 118°13'0 0.0
2014-Oct-13 03:32N 33°46' W 118°13'0 0.0
2014-Oct-13 02:32N 33°46' W 118°13'0 0.0
2014-Oct-13 01:32N 33°46' W 118°13'0 0.0
2014-Oct-13 00:31N 33°46' W 118°13'0 0.0
2014-Oct-12 23:31N 33°46' W 118°13'0 0.0
2014-Oct-12 22:31N 33°46' W 118°13'  

Dump ship's entire track history